Skip Navigation Links
NOAA logo - Click to go to the NOAA homepage
NOAA's National Weather Service
Alaska Aviation Weather Unit
  NWS logo - Click to go to the NWS homepage
Left Navbar Graphic     01 AKDT = 09 GMT

   
NOAA is celebrating 200 years of science, service, and stewardship. Visit the NOAA 200th celebration Web site to learn more.
USA.gov is the U.S. Government's official Web portal to all Federal, state and local government Web resources and services.
Facebook
NWS on Facebook

Important Change Regarding the AAWU Web Presence

 

Over the last several months, the AAWU has been working to navigate its webpages to a nationally supported server. Security, as well as other needs, have necessitated the change.  We have been given an extension for the site changeover while we diligently work at addressing feedback received. As of July 14, 2017, aawu.arh.noaa.gov will be discontinued. The new AAWU web address is weather.gov/aawu. It is now live and will run in-parallel with the old site until it is discontinued on July 14, 2017. Please continue to send any feedback or questions regarding the new webpages to nws.ar.aawu.webauthors@noaa.gov.  Thank you for your patience during this time of transition.
AAWU Home :: Display TAF Add Bookmark
TAF PATC 270400Z 2704/2810 18012G18KT 0400 FG OVC002 QNH3015INS
      TX10/2718Z TN06/2710Z=
PATC 190327Z AUTO 35012KT 10SM FEW015 SCT026 BKN060 04/02 A2973=

METAR PATC 190355Z AUTO 35018KT 10SM -SHRA FEW019 BKN050 04/02 A2973=

PATC 190427Z AUTO 34018G23KT 10SM SCT019 BKN046 04/01 A2973=

PATC 190447Z AUTO 35019KT 10SM -SHRA FEW020 BKN050 04/01 A2972=

METAR PATC 190455Z AUTO 35018KT 10SM -SHRA SCT021 BKN060 04/01 A2972=

PATC 190507Z AUTO 33018G25KT 10SM BKN020 BKN060 04/01 A2972=

PATC 190528Z AUTO 36016KT 10SM -SHRA FEW018 BKN027 04/01 A2973=

METAR PATC 190555Z AUTO 34012KT 10SM -SHRA BKN019 03/02 A2974=

PATC 190628Z AUTO 35020KT 10SM BKN022 BKN075 03/01 A2974=

PATC 190648Z AUTO 33014KT 10SM -SHRA FEW017 SCT023 SCT048 BKN075
03/01 A2974=

METAR PATC 190655Z AUTO 33016G20KT 9SM -SHRA SCT016 BKN023 BKN075 03/01
     A2974=

PATC 190708Z AUTO 35016KT 10SM -SHRA SCT017 SCT045 BKN075 03/01
A2974=

PATC 190728Z AUTO 35017KT 10SM FEW031 BKN075 04/01 A2974=

PATC 190748Z AUTO 35017KT 10SM -SHRA FEW017 BKN075 03/01 A2974=

METAR PATC 190755Z AUTO 36016KT 10SM FEW017 BKN075 04/01 A2974=

METAR PATC 190855Z AUTO 35011KT 10SM -SHRA SCT014 SCT065 BKN080 04/02
     A2976=

PATC 190908Z AUTO 35013KT 9SM -RA BKN016 BKN080 03/02 A2975=


NOAA's National Weather Service
Alaska Aviation Weather Unit
6930 Sand Lake Road
Anchorage, AK 99502-1845
Disclaimer
Credits
Glossary
Privacy Policy
About Us
Career Opportunities
Contact AAWU Internet Services Site last modified: April, 17th 2012